createdAt,value
2018-03-06T00:01:18.154Z,9.48
2018-03-06T00:04:21.777Z,9.30
2018-03-06T00:07:25.386Z,9.20
2018-03-06T00:10:28.858Z,8.57
2018-03-06T00:13:32.289Z,7.22
2018-03-06T00:16:35.769Z,7.45
2018-03-06T00:19:39.302Z,8.90
2018-03-06T00:22:42.709Z,8.00
2018-03-06T00:25:47.185Z,8.98
2018-03-06T00:28:59.599Z,7.15
2018-03-06T00:32:05.174Z,7.32
2018-03-06T00:35:08.871Z,8.23
2018-03-06T00:38:12.367Z,7.10
2018-03-06T00:41:15.802Z,7.57
2018-03-06T00:44:19.286Z,8.15
2018-03-06T00:47:22.673Z,8.57
2018-03-06T00:50:26.071Z,7.72
2018-03-06T00:53:30.180Z,7.25
2018-03-06T00:56:33.510Z,7.47
2018-03-06T00:59:36.971Z,7.00
2018-03-06T01:02:40.398Z,7.68
2018-03-06T01:05:43.853Z,8.15
2018-03-06T01:08:47.986Z,9.30
2018-03-06T01:11:52.125Z,7.53
2018-03-06T01:14:55.547Z,7.22
2018-03-06T01:17:58.907Z,7.87
2018-03-06T01:21:02.398Z,8.23
2018-03-06T01:24:06.491Z,7.90
2018-03-06T01:27:10.658Z,7.07
2018-03-06T01:30:14.000Z,6.82
2018-03-06T01:33:18.108Z,7.25
2018-03-06T01:36:21.478Z,6.32
2018-03-06T01:39:25.140Z,8.15
2018-03-06T01:42:29.385Z,7.70
2018-03-06T01:45:32.958Z,8.65
2018-03-06T01:48:36.412Z,7.35
2018-03-06T01:51:51.645Z,6.60
2018-03-06T01:54:55.752Z,7.93
2018-03-06T01:58:00.716Z,7.72
2018-03-06T02:01:04.993Z,7.35
2018-03-06T02:04:09.328Z,6.93
2018-03-06T02:07:13.427Z,9.88
2018-03-06T02:10:16.908Z,9.20
2018-03-06T02:13:21.014Z,7.85
2018-03-06T02:16:24.418Z,8.18
2018-03-06T02:19:27.912Z,6.70
2018-03-06T02:22:31.279Z,7.10
2018-03-06T02:25:34.615Z,7.87
2018-03-06T02:28:38.138Z,7.68
2018-03-06T02:31:41.505Z,8.07
2018-03-06T02:34:44.902Z,8.15
2018-03-06T02:37:48.269Z,8.70
2018-03-06T02:40:51.823Z,8.20
2018-03-06T02:43:56.056Z,7.43
2018-03-06T02:46:59.516Z,7.82
2018-03-06T02:50:03.012Z,10.20
2018-03-06T02:53:06.341Z,8.60
2018-03-06T02:56:09.712Z,8.68
2018-03-06T02:59:13.369Z,7.80
2018-03-06T03:02:16.829Z,8.65
2018-03-06T03:05:20.436Z,8.30
2018-03-06T03:08:23.867Z,8.05
2018-03-06T03:11:27.276Z,10.07
2018-03-06T03:14:31.402Z,8.32
2018-03-06T03:17:34.773Z,6.72
2018-03-06T03:20:38.226Z,7.32
2018-03-06T03:23:41.564Z,6.40
2018-03-06T03:26:44.856Z,6.55
2018-03-06T03:29:48.221Z,9.50
2018-03-06T03:32:51.607Z,8.77
2018-03-06T03:35:54.962Z,7.22
2018-03-06T03:38:58.247Z,8.35
2018-03-06T03:42:01.979Z,8.13
2018-03-06T03:45:05.314Z,6.93
2018-03-06T03:48:08.644Z,8.15
2018-03-06T03:51:11.910Z,7.45
2018-03-06T03:54:15.293Z,7.22
2018-03-06T03:57:18.610Z,7.87
2018-03-06T04:00:21.931Z,8.88
2018-03-06T04:03:25.261Z,8.90
2018-03-06T04:06:28.660Z,7.37
2018-03-06T04:09:32.002Z,8.70
2018-03-06T04:12:35.338Z,7.53
2018-03-06T04:15:38.705Z,8.20
2018-03-06T04:18:47.566Z,7.10
2018-03-06T04:21:50.920Z,8.82
2018-03-06T04:24:55.188Z,9.00
2018-03-06T04:27:59.365Z,7.45
2018-03-06T04:31:03.929Z,7.70
2018-03-06T04:34:08.089Z,9.48
2018-03-06T04:37:11.451Z,7.05
2018-03-06T04:40:15.553Z,8.90
2018-03-06T04:43:19.222Z,7.78
2018-03-06T04:46:22.550Z,8.10
2018-03-06T04:49:25.910Z,8.98
2018-03-06T04:52:29.256Z,8.80
2018-03-06T04:55:32.636Z,8.45
2018-03-06T04:58:35.943Z,8.38
2018-03-06T05:01:39.289Z,8.27
2018-03-06T05:04:42.834Z,7.95
2018-03-06T05:07:46.156Z,8.93
2018-03-06T05:10:50.277Z,8.05
2018-03-06T05:13:53.649Z,7.22
2018-03-06T05:16:57.030Z,8.27
2018-03-06T05:20:00.454Z,7.47
2018-03-06T05:23:04.571Z,8.07
2018-03-06T05:26:07.943Z,7.18
2018-03-06T05:29:11.314Z,10.43
2018-03-06T05:32:15.428Z,7.45
2018-03-06T05:35:18.791Z,11.25
2018-03-06T05:38:22.148Z,8.88
2018-03-06T05:41:25.495Z,7.70
2018-03-06T05:44:28.823Z,8.07
2018-03-06T05:47:32.216Z,10.15
2018-03-06T05:50:35.535Z,7.85
2018-03-06T05:53:38.944Z,8.98
2018-03-06T05:56:42.349Z,8.48
2018-03-06T05:59:45.734Z,10.82
2018-03-06T06:02:49.145Z,8.57
2018-03-06T06:05:52.464Z,10.30
2018-03-06T06:08:55.836Z,10.88
2018-03-06T06:11:59.246Z,10.27
2018-03-06T06:15:02.706Z,9.25
2018-03-06T06:18:06.736Z,8.52
2018-03-06T06:21:10.096Z,9.95
2018-03-06T06:24:14.236Z,10.05
2018-03-06T06:27:18.412Z,10.25
2018-03-06T06:30:21.754Z,11.18
2018-03-06T06:33:25.187Z,9.27
2018-03-06T06:36:28.555Z,9.80
2018-03-06T06:39:31.919Z,10.60
2018-03-06T06:42:36.047Z,10.07
2018-03-06T06:45:39.364Z,11.65
2018-03-06T06:48:43.447Z,17.67
2018-03-06T06:51:46.804Z,10.40
2018-03-06T06:54:50.476Z,10.10
2018-03-06T06:57:54.533Z,10.00
2018-03-06T07:00:57.857Z,13.23
2018-03-06T07:04:01.300Z,11.65
2018-03-06T07:07:05.505Z,12.13
2018-03-06T07:10:08.816Z,11.45
2018-03-06T07:13:13.079Z,10.48
2018-03-06T07:16:16.402Z,12.05
2018-03-06T07:19:19.736Z,9.25
2018-03-06T07:22:23.018Z,12.80
2018-03-06T07:25:27.131Z,10.25
2018-03-06T07:28:30.457Z,9.45
2018-03-06T07:31:33.758Z,10.48
2018-03-06T07:34:37.107Z,10.45
2018-03-06T07:37:40.400Z,12.07
2018-03-06T07:40:43.859Z,13.75
2018-03-06T07:43:47.205Z,11.02
2018-03-06T07:46:51.315Z,11.65
2018-03-06T07:49:54.666Z,11.23
2018-03-06T07:52:58.004Z,13.43
2018-03-06T07:56:02.136Z,12.13
2018-03-06T08:02:15.995Z,12.05
2018-03-06T08:05:20.068Z,13.50
2018-03-06T08:08:23.413Z,14.00
2018-03-06T08:11:26.755Z,12.43
2018-03-06T08:14:30.068Z,13.27
2018-03-06T08:17:33.429Z,12.35
2018-03-06T08:20:37.467Z,12.25
2018-03-06T08:23:41.230Z,12.50
2018-03-06T08:26:45.438Z,11.75
2018-03-06T08:29:48.966Z,11.88
2018-03-06T08:32:52.492Z,13.52
2018-03-06T08:35:55.875Z,13.05
2018-03-06T08:38:59.254Z,16.08
2018-03-06T08:42:02.644Z,14.45
2018-03-06T08:45:05.932Z,16.20
2018-03-06T08:48:10.019Z,16.80
2018-03-06T08:51:13.389Z,20.37
2018-03-06T08:54:16.674Z,17.40
2018-03-06T08:57:20.760Z,13.70
2018-03-06T09:00:24.174Z,15.18
2018-03-06T09:03:28.274Z,14.70
2018-03-06T09:06:31.939Z,14.85
2018-03-06T09:09:35.221Z,15.73
2018-03-06T09:12:39.267Z,16.37
2018-03-06T09:15:42.731Z,16.83
2018-03-06T09:18:46.199Z,16.95
2018-03-06T09:21:49.465Z,17.45
2018-03-06T09:24:52.759Z,19.02
2018-03-06T09:27:56.100Z,18.00
2018-03-06T09:31:00.161Z,17.92
2018-03-06T09:34:03.508Z,20.00
2018-03-06T09:37:07.654Z,20.73
2018-03-06T09:40:11.737Z,20.90
2018-03-06T09:43:15.082Z,20.17
2018-03-06T09:46:18.493Z,20.23
2018-03-06T09:49:21.796Z,21.27
2018-03-06T09:52:26.079Z,23.27
2018-03-06T09:55:29.437Z,21.37
2018-03-06T09:58:33.592Z,22.53
2018-03-06T10:01:37.021Z,22.77
2018-03-06T10:04:40.426Z,22.77
2018-03-06T10:07:43.863Z,24.53
2018-03-06T10:10:47.982Z,28.20
2018-03-06T10:13:51.346Z,81.83
2018-03-06T10:16:54.759Z,38.93
2018-03-06T10:19:58.024Z,30.97
2018-03-06T10:23:01.366Z,30.37
2018-03-06T10:26:04.714Z,24.83
2018-03-06T10:29:08.001Z,25.47
2018-03-06T10:32:11.321Z,25.47
2018-03-06T10:35:14.693Z,25.97
2018-03-06T10:38:18.022Z,27.00
2018-03-06T10:41:22.131Z,26.30
2018-03-06T10:44:25.875Z,26.00
2018-03-06T10:47:29.148Z,27.93
2018-03-06T10:50:32.516Z,26.13
2018-03-06T10:53:35.812Z,26.90
2018-03-06T10:56:39.105Z,28.13
2018-03-06T10:59:42.516Z,26.50
2018-03-06T11:02:45.833Z,27.70
2018-03-06T11:05:49.177Z,28.87
2018-03-06T11:08:52.509Z,29.80
2018-03-06T11:11:55.926Z,29.73
2018-03-06T11:14:59.252Z,29.10
2018-03-06T11:18:03.512Z,30.20
2018-03-06T11:21:06.872Z,29.03
2018-03-06T11:24:10.216Z,30.23
2018-03-06T11:27:13.573Z,30.77
2018-03-06T11:30:16.932Z,30.27
2018-03-06T11:33:20.228Z,29.17
2018-03-06T11:36:23.526Z,32.40
2018-03-06T11:39:26.944Z,28.63
2018-03-06T11:42:30.273Z,31.07
2018-03-06T11:45:33.620Z,31.03
2018-03-06T11:48:36.939Z,29.37
2018-03-06T11:51:40.255Z,30.27
2018-03-06T11:54:43.663Z,31.40
2018-03-06T11:57:47.724Z,32.03
2018-03-06T12:00:51.174Z,31.80
2018-03-06T12:03:55.368Z,30.60
2018-03-06T12:06:58.683Z,32.03
2018-03-06T12:10:01.976Z,32.80
2018-03-06T12:13:05.342Z,33.90
2018-03-06T12:16:08.700Z,32.87
2018-03-06T12:19:12.036Z,33.17
2018-03-06T12:22:15.337Z,31.50
2018-03-06T12:25:18.663Z,31.70
2018-03-06T12:28:22.862Z,34.00
2018-03-06T12:31:26.238Z,31.43
2018-03-06T12:34:29.600Z,31.87
2018-03-06T12:37:33.027Z,31.23
2018-03-06T12:40:36.353Z,32.17
2018-03-06T12:43:40.462Z,32.40
2018-03-06T12:46:43.982Z,30.07
2018-03-06T12:49:47.363Z,28.97
2018-03-06T12:52:50.661Z,29.10
2018-03-06T12:55:53.978Z,33.50
2018-03-06T12:58:57.322Z,32.90
2018-03-06T13:02:00.657Z,32.60
2018-03-06T13:05:03.995Z,32.50
2018-03-06T13:08:07.379Z,32.10
2018-03-06T13:11:10.713Z,31.93
2018-03-06T13:14:14.030Z,31.07
2018-03-06T13:17:17.337Z,32.90
2018-03-06T13:20:20.692Z,32.80
2018-03-06T13:23:24.032Z,28.70
2018-03-06T13:26:27.432Z,29.80
2018-03-06T13:29:31.627Z,31.53
2018-03-06T13:32:34.977Z,34.77
2018-03-06T13:35:39.080Z,31.55
2018-03-06T13:38:42.464Z,30.30
2018-03-06T13:41:45.843Z,30.20
2018-03-06T13:44:49.175Z,30.60
2018-03-06T13:47:53.286Z,31.73
2018-03-06T13:50:56.648Z,30.52
2018-03-06T13:53:59.973Z,28.40
2018-03-06T13:57:03.325Z,31.53
2018-03-06T14:00:06.676Z,29.37
2018-03-06T14:03:10.062Z,33.03
2018-03-06T14:06:13.397Z,32.28
2018-03-06T14:09:16.831Z,31.83
2018-03-06T14:12:20.284Z,32.00
2018-03-06T14:15:24.437Z,32.92
2018-03-06T14:18:27.772Z,33.60
2018-03-06T14:21:31.225Z,36.43
2018-03-06T14:24:35.288Z,32.50
2018-03-06T14:27:38.657Z,33.92
2018-03-06T14:30:42.110Z,34.40
2018-03-06T14:33:45.592Z,32.90
2018-03-06T14:36:49.703Z,30.83
2018-03-06T14:39:53.919Z,33.35
2018-03-06T14:42:57.248Z,32.67
2018-03-06T14:46:01.368Z,31.80
2018-03-06T14:49:04.773Z,32.75
2018-03-06T14:52:08.102Z,36.45
2018-03-06T14:55:11.471Z,32.10
2018-03-06T14:58:14.870Z,33.13
2018-03-06T15:01:18.948Z,34.05
2018-03-06T15:04:22.325Z,34.92
2018-03-06T15:07:25.638Z,37.72
2018-03-06T15:10:28.992Z,34.22
2018-03-06T15:13:32.355Z,32.63
2018-03-06T15:16:35.628Z,32.30
2018-03-06T15:19:38.926Z,33.15
2018-03-06T15:22:42.421Z,30.17
2018-03-06T15:25:45.758Z,31.87
2018-03-06T15:28:49.056Z,29.35
2018-03-06T15:31:53.127Z,32.65
2018-03-06T15:34:56.456Z,42.75
2018-03-06T15:37:59.724Z,29.73
2018-03-06T15:41:03.631Z,31.65
2018-03-06T15:44:07.026Z,30.70
2018-03-06T15:47:10.502Z,32.45
2018-03-06T15:50:13.903Z,43.80
2018-03-06T15:53:17.348Z,33.95
2018-03-06T15:56:20.709Z,33.05
2018-03-06T15:59:24.204Z,33.92
2018-03-06T16:02:27.575Z,31.37
2018-03-06T16:05:30.959Z,31.50
2018-03-06T16:08:34.371Z,33.72
2018-03-06T16:11:37.786Z,32.33
2018-03-06T16:14:41.214Z,33.65
2018-03-06T16:17:45.457Z,32.78
2018-03-06T16:20:48.890Z,32.42
2018-03-06T16:23:52.334Z,32.35
2018-03-06T16:26:55.722Z,33.55
2018-03-06T16:29:59.245Z,35.15
2018-03-06T16:33:02.660Z,33.83
2018-03-06T16:36:06.068Z,33.83
2018-03-06T16:39:10.210Z,34.50
2018-03-06T16:42:13.649Z,34.35
2018-03-06T16:45:16.997Z,41.13
2018-03-06T16:48:20.427Z,35.30
2018-03-06T16:51:23.845Z,34.20
2018-03-06T16:54:27.299Z,41.80
2018-03-06T16:57:30.577Z,37.58
2018-03-06T17:00:33.844Z,37.63
2018-03-06T17:03:37.157Z,35.42
2018-03-06T17:06:40.428Z,34.78
2018-03-06T17:09:43.864Z,38.85
2018-03-06T17:12:47.215Z,32.60
2018-03-06T17:15:51.350Z,37.65
2018-03-06T17:18:54.714Z,31.20
2018-03-06T17:21:58.764Z,31.00
2018-03-06T17:25:02.058Z,36.13
2018-03-06T17:28:05.329Z,31.85
2018-03-06T17:31:09.388Z,29.80
2018-03-06T17:34:12.693Z,37.55
2018-03-06T17:37:15.982Z,30.25
2018-03-06T17:40:19.265Z,29.77
2018-03-06T17:43:22.582Z,27.87
2018-03-06T17:46:25.926Z,30.42
2018-03-06T17:49:29.981Z,34.28
2018-03-06T17:52:33.230Z,33.22
2018-03-06T17:55:39.440Z,30.33
2018-03-06T17:58:42.821Z,23.42
2018-03-06T18:01:46.126Z,22.13
2018-03-06T18:04:49.439Z,31.48
2018-03-06T18:07:52.731Z,34.08
2018-03-06T18:10:56.148Z,31.05
2018-03-06T18:13:59.441Z,32.78
2018-03-06T18:17:02.902Z,30.67
2018-03-06T18:20:06.226Z,33.28
2018-03-06T18:23:09.535Z,30.83
2018-03-06T18:26:12.907Z,29.58
2018-03-06T18:29:16.232Z,31.65
2018-03-06T18:32:19.611Z,29.10
2018-03-06T18:35:22.942Z,29.45
2018-03-06T18:38:26.492Z,30.77
2018-03-06T18:41:30.109Z,33.25
2018-03-06T18:44:35.467Z,31.02
2018-03-06T18:47:39.026Z,33.58
2018-03-06T18:50:54.433Z,32.58
2018-03-06T18:53:58.312Z,27.87
2018-03-06T18:57:01.888Z,27.62
2018-03-06T19:00:37.547Z,31.20
2018-03-06T19:07:20.630Z,23.60
2018-03-06T19:10:24.476Z,28.08
2018-03-06T19:13:28.146Z,27.33
2018-03-06T19:16:31.649Z,28.40
2018-03-06T19:19:36.005Z,23.23
2018-03-06T19:22:39.315Z,26.87
2018-03-06T19:25:42.802Z,30.25
2018-03-06T19:28:46.166Z,31.20
2018-03-06T19:31:49.515Z,28.23
2018-03-06T19:34:52.807Z,29.55
2018-03-06T19:37:56.235Z,30.40
2018-03-06T19:40:59.502Z,28.12
2018-03-06T19:44:03.629Z,28.52
2018-03-06T19:47:06.933Z,30.80
2018-03-06T19:50:10.235Z,30.05
2018-03-06T19:53:13.695Z,28.08
2018-03-06T19:56:17.862Z,31.98
2018-03-06T19:59:21.944Z,26.37
2018-03-06T20:02:25.377Z,30.37
2018-03-06T20:05:28.802Z,29.35
2018-03-06T20:08:32.163Z,31.52
2018-03-06T20:11:35.458Z,27.37
2018-03-06T20:14:44.526Z,33.13
2018-03-06T20:17:47.874Z,27.30
2018-03-06T20:20:51.213Z,29.05
2018-03-06T20:23:54.513Z,28.98
2018-03-06T20:26:58.713Z,29.98
2018-03-06T20:30:02.079Z,27.48
2018-03-06T20:33:10.998Z,34.05
2018-03-06T20:36:14.441Z,29.10
2018-03-06T20:39:23.393Z,28.65
2018-03-06T20:42:26.788Z,29.00
2018-03-06T20:45:36.043Z,29.90
2018-03-06T20:48:39.405Z,30.48
2018-03-06T20:51:43.052Z,31.48
2018-03-06T20:54:52.279Z,27.05
2018-03-06T20:57:55.625Z,29.92
2018-03-06T21:00:58.973Z,31.23
2018-03-06T21:04:02.534Z,30.80
2018-03-06T21:07:06.612Z,30.58
2018-03-06T21:10:09.941Z,29.02
2018-03-06T21:13:13.247Z,30.25
2018-03-06T21:16:16.549Z,33.00
2018-03-06T21:19:20.660Z,30.60
2018-03-06T21:22:24.792Z,29.58
2018-03-06T21:25:28.964Z,29.33
2018-03-06T21:28:32.466Z,31.75
2018-03-06T21:31:35.790Z,31.60
2018-03-06T21:34:39.863Z,30.85
2018-03-06T21:37:43.408Z,32.63
2018-03-06T21:40:47.558Z,34.95
2018-03-06T21:43:50.911Z,31.35
2018-03-06T21:46:55.077Z,31.83
2018-03-06T21:49:59.159Z,30.40
2018-03-06T21:53:03.343Z,31.62
2018-03-06T21:56:07.477Z,30.42
2018-03-06T21:59:11.599Z,32.30
2018-03-06T22:02:15.115Z,29.95
2018-03-06T22:05:18.510Z,30.08
2018-03-06T22:08:22.611Z,32.47
2018-03-06T22:11:25.916Z,29.80
2018-03-06T22:14:30.075Z,32.60
2018-03-06T22:17:33.398Z,31.17
2018-03-06T22:20:36.806Z,29.20
2018-03-06T22:26:50.054Z,29.85
2018-03-06T22:29:53.337Z,30.92
2018-03-06T22:32:56.795Z,31.17
2018-03-06T22:36:01.131Z,32.70
2018-03-06T22:39:04.648Z,31.77
2018-03-06T22:42:08.060Z,31.30
2018-03-06T22:45:11.511Z,30.23
2018-03-06T22:48:14.902Z,32.70
2018-03-06T22:51:18.291Z,33.28
2018-03-06T22:54:21.603Z,32.67
2018-03-06T22:57:25.054Z,31.77
2018-03-06T23:00:28.408Z,30.45
2018-03-06T23:03:32.556Z,30.48
2018-03-06T23:06:36.343Z,29.60
2018-03-06T23:09:39.862Z,31.45
2018-03-06T23:12:43.811Z,29.67
2018-03-06T23:15:49.308Z,28.38
2018-03-06T23:18:52.670Z,31.55
2018-03-06T23:21:56.273Z,28.42
2018-03-06T23:24:59.634Z,28.85
2018-03-06T23:28:03.072Z,30.90
2018-03-06T23:31:06.424Z,30.17
2018-03-06T23:34:09.784Z,28.20
2018-03-06T23:37:13.176Z,31.17
2018-03-06T23:40:17.332Z,28.65
2018-03-06T23:43:20.699Z,30.40
2018-03-06T23:46:24.909Z,29.85
2018-03-06T23:49:28.343Z,28.77
2018-03-06T23:52:32.433Z,28.20
2018-03-06T23:55:35.969Z,29.30
2018-03-06T23:58:39.281Z,28.40
